sensor_id;sensor_type;location;lat;lon;timestamp;P1;durP1;ratioP1;P2;durP2;ratioP2
34234;SDS011;20500;49.856;20.290;2023-12-29T00:03:04;13.10;;;5.80;;
34234;SDS011;20500;49.856;20.290;2023-12-29T00:09:15;20.80;;;10.20;;
34234;SDS011;20500;49.856;20.290;2023-12-29T00:12:22;17.10;;;6.90;;
34234;SDS011;20500;49.856;20.290;2023-12-29T00:15:29;22.90;;;11.30;;
34234;SDS011;20500;49.856;20.290;2023-12-29T00:18:35;19.00;;;9.80;;
34234;SDS011;20500;49.856;20.290;2023-12-29T00:21:43;20.70;;;10.40;;
34234;SDS011;20500;49.856;20.290;2023-12-29T00:27:53;19.70;;;9.50;;
34234;SDS011;20500;49.856;20.290;2023-12-29T00:31:01;17.60;;;8.80;;
34234;SDS011;20500;49.856;20.290;2023-12-29T00:34:08;20.50;;;10.70;;
34234;SDS011;20500;49.856;20.290;2023-12-29T00:37:15;19.40;;;10.00;;
34234;SDS011;20500;49.856;20.290;2023-12-29T00:40:21;16.60;;;8.70;;
34234;SDS011;20500;49.856;20.290;2023-12-29T00:43:30;19.40;;;9.70;;
34234;SDS011;20500;49.856;20.290;2023-12-29T00:46:36;19.90;;;9.80;;
34234;SDS011;20500;49.856;20.290;2023-12-29T00:49:43;16.70;;;8.00;;
34234;SDS011;20500;49.856;20.290;2023-12-29T00:52:49;15.20;;;7.20;;
34234;SDS011;20500;49.856;20.290;2023-12-29T00:55:55;13.20;;;5.40;;
34234;SDS011;20500;49.856;20.290;2023-12-29T00:59:03;19.10;;;10.20;;
34234;SDS011;20500;49.856;20.290;2023-12-29T01:02:09;18.10;;;8.80;;
34234;SDS011;20500;49.856;20.290;2023-12-29T01:05:16;19.80;;;9.70;;
34234;SDS011;20500;49.856;20.290;2023-12-29T01:08:22;18.10;;;9.10;;
34234;SDS011;20500;49.856;20.290;2023-12-29T01:14:33;19.10;;;9.80;;
34234;SDS011;20500;49.856;20.290;2023-12-29T01:17:40;19.60;;;9.60;;
34234;SDS011;20500;49.856;20.290;2023-12-29T01:20:47;18.10;;;9.30;;
34234;SDS011;20500;49.856;20.290;2023-12-29T01:23:53;17.60;;;9.00;;
34234;SDS011;20500;49.856;20.290;2023-12-29T01:27:00;17.70;;;9.00;;
34234;SDS011;20500;49.856;20.290;2023-12-29T01:30:09;13.80;;;6.20;;
34234;SDS011;20500;49.856;20.290;2023-12-29T01:33:16;16.00;;;8.60;;
34234;SDS011;20500;49.856;20.290;2023-12-29T01:36:24;16.20;;;7.90;;
34234;SDS011;20500;49.856;20.290;2023-12-29T01:39:31;14.10;;;5.70;;
34234;SDS011;20500;49.856;20.290;2023-12-29T01:42:37;14.30;;;6.70;;
34234;SDS011;20500;49.856;20.290;2023-12-29T01:48:59;11.60;;;5.00;;
34234;SDS011;20500;49.856;20.290;2023-12-29T01:52:06;10.30;;;4.20;;
34234;SDS011;20500;49.856;20.290;2023-12-29T01:55:14;12.00;;;4.90;;
34234;SDS011;20500;49.856;20.290;2023-12-29T01:58:23;11.00;;;4.20;;
34234;SDS011;20500;49.856;20.290;2023-12-29T02:01:29;9.80;;;3.90;;
34234;SDS011;20500;49.856;20.290;2023-12-29T02:04:36;8.80;;;3.50;;
34234;SDS011;20500;49.856;20.290;2023-12-29T02:07:45;9.20;;;3.30;;
34234;SDS011;20500;49.856;20.290;2023-12-29T02:10:52;9.90;;;3.30;;
34234;SDS011;20500;49.856;20.290;2023-12-29T02:13:59;10.40;;;4.00;;
34234;SDS011;20500;49.856;20.290;2023-12-29T02:17:08;9.60;;;3.60;;
34234;SDS011;20500;49.856;20.290;2023-12-29T02:20:20;11.30;;;3.40;;
34234;SDS011;20500;49.856;20.290;2023-12-29T02:23:26;8.50;;;3.30;;
34234;SDS011;20500;49.856;20.290;2023-12-29T02:26:32;9.40;;;3.50;;
34234;SDS011;20500;49.856;20.290;2023-12-29T02:29:42;8.90;;;3.30;;
34234;SDS011;20500;49.856;20.290;2023-12-29T02:32:56;10.00;;;4.00;;
34234;SDS011;20500;49.856;20.290;2023-12-29T02:36:06;10.30;;;3.80;;
34234;SDS011;20500;49.856;20.290;2023-12-29T02:39:14;11.90;;;4.80;;
34234;SDS011;20500;49.856;20.290;2023-12-29T02:42:21;9.20;;;3.60;;
34234;SDS011;20500;49.856;20.290;2023-12-29T02:45:27;7.70;;;2.80;;
34234;SDS011;20500;49.856;20.290;2023-12-29T02:48:33;8.50;;;3.00;;
34234;SDS011;20500;49.856;20.290;2023-12-29T02:54:44;11.20;;;4.60;;
34234;SDS011;20500;49.856;20.290;2023-12-29T03:00:55;9.40;;;3.30;;
34234;SDS011;20500;49.856;20.290;2023-12-29T03:04:02;9.70;;;4.40;;
34234;SDS011;20500;49.856;20.290;2023-12-29T03:07:09;8.60;;;3.30;;
34234;SDS011;20500;49.856;20.290;2023-12-29T03:10:15;9.50;;;3.40;;
34234;SDS011;20500;49.856;20.290;2023-12-29T03:13:22;8.30;;;2.90;;
34234;SDS011;20500;49.856;20.290;2023-12-29T03:19:33;7.70;;;2.90;;
34234;SDS011;20500;49.856;20.290;2023-12-29T03:25:44;7.10;;;2.70;;
34234;SDS011;20500;49.856;20.290;2023-12-29T03:28:50;7.90;;;2.90;;
34234;SDS011;20500;49.856;20.290;2023-12-29T03:35:01;8.50;;;3.00;;
34234;SDS011;20500;49.856;20.290;2023-12-29T03:38:08;9.10;;;3.40;;
34234;SDS011;20500;49.856;20.290;2023-12-29T03:44:19;9.60;;;3.60;;
34234;SDS011;20500;49.856;20.290;2023-12-29T03:47:25;8.70;;;3.50;;
34234;SDS011;20500;49.856;20.290;2023-12-29T03:50:33;9.90;;;2.90;;
34234;SDS011;20500;49.856;20.290;2023-12-29T03:53:39;10.30;;;3.90;;
34234;SDS011;20500;49.856;20.290;2023-12-29T03:56:46;8.80;;;3.60;;
34234;SDS011;20500;49.856;20.290;2023-12-29T04:02:56;7.40;;;3.10;;
34234;SDS011;20500;49.856;20.290;2023-12-29T04:06:03;10.00;;;3.20;;
34234;SDS011;20500;49.856;20.290;2023-12-29T04:09:10;8.80;;;3.10;;
34234;SDS011;20500;49.856;20.290;2023-12-29T04:15:21;8.70;;;3.30;;
34234;SDS011;20500;49.856;20.290;2023-12-29T04:18:28;8.40;;;3.00;;
34234;SDS011;20500;49.856;20.290;2023-12-29T04:21:34;8.60;;;3.50;;
34234;SDS011;20500;49.856;20.290;2023-12-29T04:24:41;8.70;;;3.00;;
34234;SDS011;20500;49.856;20.290;2023-12-29T04:30:52;7.90;;;2.90;;
34234;SDS011;20500;49.856;20.290;2023-12-29T04:33:59;8.90;;;3.10;;
34234;SDS011;20500;49.856;20.290;2023-12-29T04:37:05;8.40;;;3.00;;
34234;SDS011;20500;49.856;20.290;2023-12-29T04:43:16;9.00;;;3.20;;
34234;SDS011;20500;49.856;20.290;2023-12-29T04:46:22;9.00;;;3.70;;
34234;SDS011;20500;49.856;20.290;2023-12-29T04:52:33;7.70;;;2.90;;
34234;SDS011;20500;49.856;20.290;2023-12-29T04:58:45;9.40;;;4.20;;
34234;SDS011;20500;49.856;20.290;2023-12-29T05:01:51;7.70;;;2.80;;
34234;SDS011;20500;49.856;20.290;2023-12-29T05:08:02;10.20;;;4.80;;
34234;SDS011;20500;49.856;20.290;2023-12-29T05:11:08;12.50;;;5.60;;
34234;SDS011;20500;49.856;20.290;2023-12-29T05:17:19;9.20;;;3.50;;
34234;SDS011;20500;49.856;20.290;2023-12-29T05:20:26;9.40;;;3.50;;
34234;SDS011;20500;49.856;20.290;2023-12-29T05:23:32;10.20;;;3.60;;
34234;SDS011;20500;49.856;20.290;2023-12-29T05:26:38;9.40;;;3.20;;
34234;SDS011;20500;49.856;20.290;2023-12-29T05:29:44;8.00;;;2.80;;
34234;SDS011;20500;49.856;20.290;2023-12-29T05:32:50;8.50;;;3.30;;
34234;SDS011;20500;49.856;20.290;2023-12-29T05:35:56;9.10;;;2.80;;
34234;SDS011;20500;49.856;20.290;2023-12-29T05:39:02;7.50;;;2.40;;
34234;SDS011;20500;49.856;20.290;2023-12-29T05:42:09;7.30;;;2.50;;
34234;SDS011;20500;49.856;20.290;2023-12-29T05:45:16;8.70;;;3.00;;
34234;SDS011;20500;49.856;20.290;2023-12-29T05:48:22;7.70;;;2.80;;
34234;SDS011;20500;49.856;20.290;2023-12-29T05:54:33;8.30;;;3.20;;
34234;SDS011;20500;49.856;20.290;2023-12-29T05:57:39;9.30;;;3.50;;
34234;SDS011;20500;49.856;20.290;2023-12-29T06:00:45;9.10;;;3.40;;
34234;SDS011;20500;49.856;20.290;2023-12-29T06:03:51;9.00;;;3.60;;
34234;SDS011;20500;49.856;20.290;2023-12-29T06:10:02;9.80;;;3.20;;
34234;SDS011;20500;49.856;20.290;2023-12-29T06:13:09;7.90;;;3.20;;
34234;SDS011;20500;49.856;20.290;2023-12-29T06:19:23;9.90;;;3.40;;
34234;SDS011;20500;49.856;20.290;2023-12-29T06:22:31;9.30;;;3.50;;
34234;SDS011;20500;49.856;20.290;2023-12-29T06:25:37;8.20;;;2.70;;
34234;SDS011;20500;49.856;20.290;2023-12-29T06:28:44;9.10;;;3.60;;
34234;SDS011;20500;49.856;20.290;2023-12-29T06:31:50;8.20;;;3.10;;
34234;SDS011;20500;49.856;20.290;2023-12-29T06:34:56;9.10;;;3.30;;
34234;SDS011;20500;49.856;20.290;2023-12-29T06:38:02;10.80;;;4.40;;
34234;SDS011;20500;49.856;20.290;2023-12-29T06:44:13;12.10;;;4.80;;
34234;SDS011;20500;49.856;20.290;2023-12-29T06:47:19;9.90;;;3.20;;
34234;SDS011;20500;49.856;20.290;2023-12-29T06:53:30;9.70;;;3.30;;
34234;SDS011;20500;49.856;20.290;2023-12-29T06:56:36;7.20;;;2.90;;
34234;SDS011;20500;49.856;20.290;2023-12-29T06:59:42;9.00;;;3.40;;
34234;SDS011;20500;49.856;20.290;2023-12-29T07:05:53;8.30;;;3.40;;
34234;SDS011;20500;49.856;20.290;2023-12-29T07:08:59;6.60;;;2.40;;
34234;SDS011;20500;49.856;20.290;2023-12-29T07:12:06;9.30;;;3.50;;
34234;SDS011;20500;49.856;20.290;2023-12-29T07:15:12;8.50;;;3.10;;
34234;SDS011;20500;49.856;20.290;2023-12-29T07:21:23;8.10;;;3.10;;
34234;SDS011;20500;49.856;20.290;2023-12-29T07:27:34;8.10;;;3.10;;
34234;SDS011;20500;49.856;20.290;2023-12-29T07:33:45;9.40;;;3.20;;
34234;SDS011;20500;49.856;20.290;2023-12-29T07:36:51;7.40;;;2.70;;
34234;SDS011;20500;49.856;20.290;2023-12-29T07:39:57;8.00;;;2.90;;
34234;SDS011;20500;49.856;20.290;2023-12-29T07:46:08;8.60;;;2.70;;
34234;SDS011;20500;49.856;20.290;2023-12-29T07:49:14;7.30;;;2.90;;
34234;SDS011;20500;49.856;20.290;2023-12-29T07:52:20;8.30;;;3.10;;
34234;SDS011;20500;49.856;20.290;2023-12-29T07:55:26;7.50;;;2.80;;
34234;SDS011;20500;49.856;20.290;2023-12-29T07:58:33;7.00;;;2.90;;
34234;SDS011;20500;49.856;20.290;2023-12-29T08:01:42;9.00;;;3.00;;
34234;SDS011;20500;49.856;20.290;2023-12-29T08:07:52;7.60;;;2.80;;
34234;SDS011;20500;49.856;20.290;2023-12-29T08:10:59;9.40;;;3.10;;
34234;SDS011;20500;49.856;20.290;2023-12-29T08:14:05;7.90;;;2.40;;
34234;SDS011;20500;49.856;20.290;2023-12-29T08:20:16;7.10;;;2.20;;
34234;SDS011;20500;49.856;20.290;2023-12-29T08:23:24;7.40;;;2.70;;
34234;SDS011;20500;49.856;20.290;2023-12-29T08:26:30;7.60;;;2.50;;
34234;SDS011;20500;49.856;20.290;2023-12-29T08:32:41;6.30;;;2.30;;
34234;SDS011;20500;49.856;20.290;2023-12-29T08:35:47;7.10;;;2.80;;
34234;SDS011;20500;49.856;20.290;2023-12-29T08:41:59;7.50;;;2.90;;
34234;SDS011;20500;49.856;20.290;2023-12-29T08:48:11;7.70;;;2.60;;
34234;SDS011;20500;49.856;20.290;2023-12-29T08:51:18;7.00;;;2.10;;
34234;SDS011;20500;49.856;20.290;2023-12-29T08:54:25;6.10;;;2.10;;
34234;SDS011;20500;49.856;20.290;2023-12-29T08:57:32;5.60;;;2.10;;
34234;SDS011;20500;49.856;20.290;2023-12-29T09:00:38;7.90;;;2.50;;
34234;SDS011;20500;49.856;20.290;2023-12-29T09:06:49;7.30;;;2.50;;
34234;SDS011;20500;49.856;20.290;2023-12-29T09:09:55;8.20;;;3.00;;
34234;SDS011;20500;49.856;20.290;2023-12-29T09:13:02;6.30;;;1.90;;
34234;SDS011;20500;49.856;20.290;2023-12-29T09:16:08;6.40;;;2.10;;
34234;SDS011;20500;49.856;20.290;2023-12-29T09:22:33;4.30;;;1.50;;
34234;SDS011;20500;49.856;20.290;2023-12-29T09:25:40;5.80;;;1.70;;
34234;SDS011;20500;49.856;20.290;2023-12-29T09:28:47;3.80;;;1.30;;
34234;SDS011;20500;49.856;20.290;2023-12-29T09:31:53;3.30;;;1.40;;
34234;SDS011;20500;49.856;20.290;2023-12-29T09:34:59;3.60;;;1.40;;
34234;SDS011;20500;49.856;20.290;2023-12-29T09:38:06;11.70;;;5.00;;
34234;SDS011;20500;49.856;20.290;2023-12-29T09:41:14;8.90;;;2.80;;
34234;SDS011;20500;49.856;20.290;2023-12-29T09:44:22;8.70;;;2.70;;
34234;SDS011;20500;49.856;20.290;2023-12-29T09:47:31;4.00;;;1.50;;
34234;SDS011;20500;49.856;20.290;2023-12-29T09:50:42;3.50;;;1.50;;
34234;SDS011;20500;49.856;20.290;2023-12-29T09:53:50;5.10;;;1.80;;
34234;SDS011;20500;49.856;20.290;2023-12-29T09:56:56;5.50;;;1.70;;
34234;SDS011;20500;49.856;20.290;2023-12-29T10:00:05;5.00;;;1.70;;
34234;SDS011;20500;49.856;20.290;2023-12-29T10:03:14;4.90;;;1.60;;
34234;SDS011;20500;49.856;20.290;2023-12-29T10:06:24;3.90;;;1.40;;
34234;SDS011;20500;49.856;20.290;2023-12-29T10:09:31;4.00;;;1.60;;
34234;SDS011;20500;49.856;20.290;2023-12-29T10:12:38;5.70;;;1.30;;
34234;SDS011;20500;49.856;20.290;2023-12-29T10:15:47;2.70;;;1.20;;
34234;SDS011;20500;49.856;20.290;2023-12-29T10:19:00;4.40;;;1.50;;
34234;SDS011;20500;49.856;20.290;2023-12-29T10:22:17;4.00;;;1.40;;
34234;SDS011;20500;49.856;20.290;2023-12-29T10:25:25;3.10;;;1.20;;
34234;SDS011;20500;49.856;20.290;2023-12-29T10:28:33;5.20;;;1.50;;
34234;SDS011;20500;49.856;20.290;2023-12-29T10:31:39;2.80;;;1.20;;
34234;SDS011;20500;49.856;20.290;2023-12-29T10:34:46;4.00;;;1.40;;
34234;SDS011;20500;49.856;20.290;2023-12-29T10:37:52;3.90;;;1.50;;
34234;SDS011;20500;49.856;20.290;2023-12-29T10:44:14;3.30;;;1.20;;
34234;SDS011;20500;49.856;20.290;2023-12-29T10:47:20;5.90;;;1.80;;
34234;SDS011;20500;49.856;20.290;2023-12-29T10:50:28;4.20;;;1.30;;
34234;SDS011;20500;49.856;20.290;2023-12-29T10:53:35;4.00;;;1.30;;
34234;SDS011;20500;49.856;20.290;2023-12-29T10:56:44;4.40;;;1.30;;
34234;SDS011;20500;49.856;20.290;2023-12-29T11:03:00;4.00;;;1.50;;
34234;SDS011;20500;49.856;20.290;2023-12-29T11:06:08;5.20;;;1.60;;
34234;SDS011;20500;49.856;20.290;2023-12-29T11:09:17;5.10;;;1.40;;
34234;SDS011;20500;49.856;20.290;2023-12-29T11:12:33;4.80;;;1.80;;
34234;SDS011;20500;49.856;20.290;2023-12-29T11:15:41;4.40;;;1.60;;
34234;SDS011;20500;49.856;20.290;2023-12-29T11:18:49;5.70;;;1.80;;
34234;SDS011;20500;49.856;20.290;2023-12-29T11:21:56;4.90;;;1.70;;
34234;SDS011;20500;49.856;20.290;2023-12-29T11:25:03;9.00;;;2.90;;
34234;SDS011;20500;49.856;20.290;2023-12-29T11:28:10;7.10;;;2.30;;
34234;SDS011;20500;49.856;20.290;2023-12-29T11:31:17;7.40;;;2.40;;
34234;SDS011;20500;49.856;20.290;2023-12-29T11:34:26;8.40;;;2.60;;
34234;SDS011;20500;49.856;20.290;2023-12-29T11:37:42;5.20;;;1.70;;
34234;SDS011;20500;49.856;20.290;2023-12-29T11:44:12;5.20;;;1.60;;
34234;SDS011;20500;49.856;20.290;2023-12-29T11:47:35;6.70;;;2.50;;
34234;SDS011;20500;49.856;20.290;2023-12-29T11:50:42;5.20;;;1.60;;
34234;SDS011;20500;49.856;20.290;2023-12-29T11:56:53;5.20;;;1.70;;
34234;SDS011;20500;49.856;20.290;2023-12-29T11:59:59;5.50;;;1.70;;
34234;SDS011;20500;49.856;20.290;2023-12-29T12:03:14;4.40;;;1.50;;
34234;SDS011;20500;49.856;20.290;2023-12-29T12:06:33;4.50;;;1.80;;
34234;SDS011;20500;49.856;20.290;2023-12-29T12:09:42;5.90;;;1.70;;
34234;SDS011;20500;49.856;20.290;2023-12-29T12:12:52;4.40;;;1.60;;
34234;SDS011;20500;49.856;20.290;2023-12-29T12:16:01;5.20;;;1.60;;
34234;SDS011;20500;49.856;20.290;2023-12-29T12:19:08;5.80;;;1.80;;
34234;SDS011;20500;49.856;20.290;2023-12-29T12:22:14;6.90;;;2.00;;
34234;SDS011;20500;49.856;20.290;2023-12-29T12:25:26;10.00;;;3.50;;
34234;SDS011;20500;49.856;20.290;2023-12-29T12:28:34;10.20;;;4.10;;
34234;SDS011;20500;49.856;20.290;2023-12-29T12:31:52;8.90;;;2.80;;
34234;SDS011;20500;49.856;20.290;2023-12-29T12:34:59;8.00;;;2.60;;
34234;SDS011;20500;49.856;20.290;2023-12-29T12:38:10;10.40;;;3.30;;
34234;SDS011;20500;49.856;20.290;2023-12-29T12:41:16;9.00;;;2.90;;
34234;SDS011;20500;49.856;20.290;2023-12-29T12:44:23;6.00;;;2.10;;
34234;SDS011;20500;49.856;20.290;2023-12-29T12:47:34;6.20;;;2.40;;
34234;SDS011;20500;49.856;20.290;2023-12-29T12:50:48;6.80;;;2.20;;
34234;SDS011;20500;49.856;20.290;2023-12-29T12:53:57;5.40;;;2.00;;
34234;SDS011;20500;49.856;20.290;2023-12-29T13:00:09;6.10;;;2.10;;
34234;SDS011;20500;49.856;20.290;2023-12-29T13:03:19;7.80;;;2.20;;
34234;SDS011;20500;49.856;20.290;2023-12-29T13:06:25;5.90;;;2.20;;
34234;SDS011;20500;49.856;20.290;2023-12-29T13:09:31;7.40;;;2.50;;
34234;SDS011;20500;49.856;20.290;2023-12-29T13:12:39;7.80;;;2.70;;
34234;SDS011;20500;49.856;20.290;2023-12-29T13:15:57;6.10;;;2.20;;
34234;SDS011;20500;49.856;20.290;2023-12-29T13:19:18;5.10;;;1.90;;
34234;SDS011;20500;49.856;20.290;2023-12-29T13:22:26;10.30;;;3.00;;
34234;SDS011;20500;49.856;20.290;2023-12-29T13:25:32;9.40;;;2.70;;
34234;SDS011;20500;49.856;20.290;2023-12-29T13:28:40;8.70;;;2.70;;
34234;SDS011;20500;49.856;20.290;2023-12-29T13:31:47;7.60;;;2.50;;
34234;SDS011;20500;49.856;20.290;2023-12-29T13:34:55;6.80;;;2.60;;
34234;SDS011;20500;49.856;20.290;2023-12-29T13:38:10;7.10;;;2.30;;
34234;SDS011;20500;49.856;20.290;2023-12-29T13:41:23;7.30;;;2.70;;
34234;SDS011;20500;49.856;20.290;2023-12-29T13:44:34;9.30;;;3.40;;
34234;SDS011;20500;49.856;20.290;2023-12-29T13:47:42;10.70;;;3.20;;
34234;SDS011;20500;49.856;20.290;2023-12-29T13:50:50;9.20;;;3.00;;
34234;SDS011;20500;49.856;20.290;2023-12-29T13:57:04;7.30;;;2.70;;
34234;SDS011;20500;49.856;20.290;2023-12-29T14:00:17;8.40;;;2.40;;
34234;SDS011;20500;49.856;20.290;2023-12-29T14:03:27;7.90;;;2.60;;
34234;SDS011;20500;49.856;20.290;2023-12-29T14:06:38;7.60;;;2.80;;
34234;SDS011;20500;49.856;20.290;2023-12-29T14:09:55;6.30;;;2.40;;
34234;SDS011;20500;49.856;20.290;2023-12-29T14:13:05;8.40;;;3.00;;
34234;SDS011;20500;49.856;20.290;2023-12-29T14:16:13;8.20;;;2.80;;
34234;SDS011;20500;49.856;20.290;2023-12-29T14:19:23;8.50;;;2.90;;
34234;SDS011;20500;49.856;20.290;2023-12-29T14:22:29;7.50;;;2.70;;
34234;SDS011;20500;49.856;20.290;2023-12-29T14:25:36;7.70;;;2.60;;
34234;SDS011;20500;49.856;20.290;2023-12-29T14:28:42;7.60;;;2.60;;
34234;SDS011;20500;49.856;20.290;2023-12-29T14:31:49;8.50;;;2.70;;
34234;SDS011;20500;49.856;20.290;2023-12-29T14:34:55;7.50;;;2.80;;
34234;SDS011;20500;49.856;20.290;2023-12-29T14:38:02;9.60;;;2.90;;
34234;SDS011;20500;49.856;20.290;2023-12-29T14:41:08;8.00;;;2.60;;
34234;SDS011;20500;49.856;20.290;2023-12-29T14:47:19;10.90;;;4.70;;
34234;SDS011;20500;49.856;20.290;2023-12-29T14:50:26;9.90;;;4.20;;
34234;SDS011;20500;49.856;20.290;2023-12-29T14:53:32;10.60;;;3.90;;
34234;SDS011;20500;49.856;20.290;2023-12-29T14:59:42;10.30;;;4.00;;
34234;SDS011;20500;49.856;20.290;2023-12-29T15:05:53;12.20;;;5.20;;
34234;SDS011;20500;49.856;20.290;2023-12-29T15:09:01;13.20;;;5.90;;
34234;SDS011;20500;49.856;20.290;2023-12-29T15:12:09;14.60;;;7.70;;
34234;SDS011;20500;49.856;20.290;2023-12-29T15:15:15;19.40;;;10.60;;
34234;SDS011;20500;49.856;20.290;2023-12-29T15:32:30;14.50;;;7.80;;
34234;SDS011;20500;49.856;20.290;2023-12-29T15:35:36;16.00;;;8.80;;
34234;SDS011;20500;49.856;20.290;2023-12-29T15:38:44;14.10;;;6.20;;
34234;SDS011;20500;49.856;20.290;2023-12-29T15:44:54;21.30;;;13.50;;
34234;SDS011;20500;49.856;20.290;2023-12-29T15:51:07;52.30;;;31.80;;
34234;SDS011;20500;49.856;20.290;2023-12-29T15:54:13;36.50;;;22.30;;
34234;SDS011;20500;49.856;20.290;2023-12-29T16:00:24;28.30;;;18.10;;
34234;SDS011;20500;49.856;20.290;2023-12-29T16:03:32;36.90;;;26.20;;
34234;SDS011;20500;49.856;20.290;2023-12-29T16:06:38;28.20;;;16.90;;
34234;SDS011;20500;49.856;20.290;2023-12-29T16:12:49;159.80;;;87.20;;
34234;SDS011;20500;49.856;20.290;2023-12-29T16:15:56;83.60;;;43.00;;
34234;SDS011;20500;49.856;20.290;2023-12-29T16:22:07;82.10;;;42.90;;
34234;SDS011;20500;49.856;20.290;2023-12-29T16:25:14;76.30;;;43.30;;
34234;SDS011;20500;49.856;20.290;2023-12-29T16:31:26;59.70;;;39.40;;
34234;SDS011;20500;49.856;20.290;2023-12-29T16:34:32;37.20;;;22.10;;
34234;SDS011;20500;49.856;20.290;2023-12-29T16:40:44;24.30;;;11.20;;
34234;SDS011;20500;49.856;20.290;2023-12-29T16:43:50;32.00;;;20.40;;
34234;SDS011;20500;49.856;20.290;2023-12-29T16:46:56;35.80;;;18.10;;
34234;SDS011;20500;49.856;20.290;2023-12-29T16:50:03;63.50;;;41.30;;
34234;SDS011;20500;49.856;20.290;2023-12-29T16:53:10;32.60;;;21.80;;
34234;SDS011;20500;49.856;20.290;2023-12-29T16:56:16;36.90;;;26.10;;
34234;SDS011;20500;49.856;20.290;2023-12-29T16:59:22;32.20;;;21.10;;
34234;SDS011;20500;49.856;20.290;2023-12-29T17:05:33;24.70;;;17.30;;
34234;SDS011;20500;49.856;20.290;2023-12-29T17:11:44;17.70;;;10.20;;
34234;SDS011;20500;49.856;20.290;2023-12-29T17:14:50;16.10;;;8.90;;
34234;SDS011;20500;49.856;20.290;2023-12-29T17:17:56;15.00;;;6.80;;
34234;SDS011;20500;49.856;20.290;2023-12-29T17:21:04;22.70;;;15.20;;
34234;SDS011;20500;49.856;20.290;2023-12-29T17:24:11;18.30;;;10.90;;
34234;SDS011;20500;49.856;20.290;2023-12-29T17:27:21;17.60;;;9.90;;
34234;SDS011;20500;49.856;20.290;2023-12-29T17:30:28;15.80;;;8.60;;
34234;SDS011;20500;49.856;20.290;2023-12-29T17:33:35;15.40;;;7.60;;
34234;SDS011;20500;49.856;20.290;2023-12-29T17:36:41;16.00;;;9.60;;
34234;SDS011;20500;49.856;20.290;2023-12-29T17:39:49;15.20;;;7.60;;
34234;SDS011;20500;49.856;20.290;2023-12-29T17:46:04;14.30;;;6.80;;
34234;SDS011;20500;49.856;20.290;2023-12-29T17:49:11;11.60;;;5.60;;
34234;SDS011;20500;49.856;20.290;2023-12-29T17:52:20;12.60;;;5.80;;
34234;SDS011;20500;49.856;20.290;2023-12-29T17:58:31;14.60;;;6.70;;
34234;SDS011;20500;49.856;20.290;2023-12-29T18:01:37;17.60;;;9.70;;
34234;SDS011;20500;49.856;20.290;2023-12-29T18:04:43;19.10;;;11.30;;
34234;SDS011;20500;49.856;20.290;2023-12-29T18:07:49;22.70;;;12.30;;
34234;SDS011;20500;49.856;20.290;2023-12-29T18:10:56;14.60;;;7.10;;
34234;SDS011;20500;49.856;20.290;2023-12-29T18:14:06;18.60;;;11.30;;
34234;SDS011;20500;49.856;20.290;2023-12-29T18:20:17;12.70;;;6.50;;
34234;SDS011;20500;49.856;20.290;2023-12-29T18:23:26;13.20;;;7.00;;
34234;SDS011;20500;49.856;20.290;2023-12-29T18:26:32;14.60;;;7.60;;
34234;SDS011;20500;49.856;20.290;2023-12-29T18:29:44;11.80;;;6.00;;
34234;SDS011;20500;49.856;20.290;2023-12-29T18:32:50;18.20;;;11.40;;
34234;SDS011;20500;49.856;20.290;2023-12-29T18:35:56;13.90;;;7.30;;
34234;SDS011;20500;49.856;20.290;2023-12-29T18:39:05;13.50;;;7.30;;
34234;SDS011;20500;49.856;20.290;2023-12-29T18:42:12;14.00;;;7.50;;
34234;SDS011;20500;49.856;20.290;2023-12-29T18:45:18;11.60;;;5.20;;
34234;SDS011;20500;49.856;20.290;2023-12-29T18:48:24;13.50;;;6.50;;
34234;SDS011;20500;49.856;20.290;2023-12-29T18:51:31;11.50;;;5.10;;
34234;SDS011;20500;49.856;20.290;2023-12-29T18:57:42;10.90;;;4.40;;
34234;SDS011;20500;49.856;20.290;2023-12-29T19:03:55;11.90;;;4.80;;
34234;SDS011;20500;49.856;20.290;2023-12-29T19:07:02;10.30;;;4.40;;
34234;SDS011;20500;49.856;20.290;2023-12-29T19:10:09;11.00;;;5.00;;
34234;SDS011;20500;49.856;20.290;2023-12-29T19:13:17;12.70;;;5.70;;
34234;SDS011;20500;49.856;20.290;2023-12-29T19:19:30;13.70;;;7.20;;
34234;SDS011;20500;49.856;20.290;2023-12-29T19:25:43;12.30;;;6.60;;
34234;SDS011;20500;49.856;20.290;2023-12-29T19:31:54;12.00;;;5.40;;
34234;SDS011;20500;49.856;20.290;2023-12-29T19:35:00;12.30;;;5.20;;
34234;SDS011;20500;49.856;20.290;2023-12-29T19:38:07;11.40;;;5.10;;
34234;SDS011;20500;49.856;20.290;2023-12-29T19:41:13;11.60;;;4.40;;
34234;SDS011;20500;49.856;20.290;2023-12-29T19:44:22;11.80;;;5.30;;
34234;SDS011;20500;49.856;20.290;2023-12-29T19:50:33;20.90;;;8.10;;
34234;SDS011;20500;49.856;20.290;2023-12-29T19:53:43;14.60;;;6.10;;
34234;SDS011;20500;49.856;20.290;2023-12-29T19:56:50;13.00;;;5.00;;
34234;SDS011;20500;49.856;20.290;2023-12-29T19:59:56;11.90;;;5.00;;
34234;SDS011;20500;49.856;20.290;2023-12-29T20:03:03;14.80;;;6.10;;
34234;SDS011;20500;49.856;20.290;2023-12-29T20:06:09;16.60;;;7.30;;
34234;SDS011;20500;49.856;20.290;2023-12-29T20:09:23;12.10;;;5.10;;
34234;SDS011;20500;49.856;20.290;2023-12-29T20:12:29;11.10;;;4.10;;
34234;SDS011;20500;49.856;20.290;2023-12-29T20:15:35;17.10;;;8.60;;
34234;SDS011;20500;49.856;20.290;2023-12-29T20:18:42;15.00;;;7.20;;
34234;SDS011;20500;49.856;20.290;2023-12-29T20:21:49;21.10;;;11.10;;
34234;SDS011;20500;49.856;20.290;2023-12-29T20:28:01;14.60;;;7.30;;
34234;SDS011;20500;49.856;20.290;2023-12-29T20:31:07;16.20;;;7.90;;
34234;SDS011;20500;49.856;20.290;2023-12-29T20:34:24;14.00;;;6.50;;
34234;SDS011;20500;49.856;20.290;2023-12-29T20:37:30;28.30;;;16.30;;
34234;SDS011;20500;49.856;20.290;2023-12-29T20:43:41;15.50;;;8.60;;
34234;SDS011;20500;49.856;20.290;2023-12-29T20:46:48;12.90;;;6.20;;
34234;SDS011;20500;49.856;20.290;2023-12-29T20:49:54;12.20;;;5.30;;
34234;SDS011;20500;49.856;20.290;2023-12-29T20:53:01;12.70;;;5.60;;
34234;SDS011;20500;49.856;20.290;2023-12-29T20:56:09;11.20;;;4.70;;
34234;SDS011;20500;49.856;20.290;2023-12-29T20:59:15;10.40;;;4.10;;
34234;SDS011;20500;49.856;20.290;2023-12-29T21:02:22;11.10;;;4.90;;
34234;SDS011;20500;49.856;20.290;2023-12-29T21:05:29;11.50;;;4.80;;
34234;SDS011;20500;49.856;20.290;2023-12-29T21:11:40;13.70;;;5.70;;
34234;SDS011;20500;49.856;20.290;2023-12-29T21:14:46;12.70;;;6.00;;
34234;SDS011;20500;49.856;20.290;2023-12-29T21:20:57;11.20;;;4.50;;
34234;SDS011;20500;49.856;20.290;2023-12-29T21:24:04;12.40;;;5.40;;
34234;SDS011;20500;49.856;20.290;2023-12-29T21:27:12;11.20;;;5.40;;
34234;SDS011;20500;49.856;20.290;2023-12-29T21:30:18;10.00;;;4.20;;
34234;SDS011;20500;49.856;20.290;2023-12-29T21:33:25;10.80;;;4.50;;
34234;SDS011;20500;49.856;20.290;2023-12-29T21:36:31;10.90;;;4.40;;
34234;SDS011;20500;49.856;20.290;2023-12-29T21:39:38;10.00;;;4.30;;
34234;SDS011;20500;49.856;20.290;2023-12-29T21:42:45;9.70;;;3.50;;
34234;SDS011;20500;49.856;20.290;2023-12-29T21:45:51;10.50;;;4.00;;
34234;SDS011;20500;49.856;20.290;2023-12-29T21:48:57;9.20;;;3.80;;
34234;SDS011;20500;49.856;20.290;2023-12-29T21:52:06;10.30;;;3.90;;
34234;SDS011;20500;49.856;20.290;2023-12-29T21:55:12;10.10;;;3.60;;
34234;SDS011;20500;49.856;20.290;2023-12-29T21:58:18;11.00;;;4.70;;
34234;SDS011;20500;49.856;20.290;2023-12-29T22:04:38;9.30;;;3.80;;
34234;SDS011;20500;49.856;20.290;2023-12-29T22:10:48;12.10;;;4.00;;